createdAt,value
2023-03-03T00:00:28.620Z,28.83
2023-03-03T00:05:35.720Z,27.20
2023-03-03T00:10:38.198Z,30.43
2023-03-03T00:15:40.111Z,30.40
2023-03-03T00:20:41.899Z,27.33
2023-03-03T00:25:45.743Z,37.00
2023-03-03T00:30:47.462Z,33.30
2023-03-03T00:35:52.173Z,33.40
2023-03-03T00:40:56.123Z,27.87
2023-03-03T00:46:00.085Z,27.10
2023-03-03T00:51:08.214Z,29.47
2023-03-03T00:56:10.144Z,28.33
2023-03-03T01:01:11.876Z,23.50
2023-03-03T01:06:19.223Z,27.20
2023-03-03T01:11:28.657Z,31.13
2023-03-03T01:16:34.887Z,20.37
2023-03-03T01:21:36.570Z,22.03
2023-03-03T01:26:38.574Z,17.87
2023-03-03T01:31:40.546Z,18.83
2023-03-03T01:36:42.334Z,21.33
2023-03-03T01:41:44.138Z,17.67
2023-03-03T01:46:56.131Z,24.07
2023-03-03T01:52:01.683Z,17.60
2023-03-03T01:57:08.373Z,18.70
2023-03-03T02:02:12.893Z,18.93
2023-03-03T02:07:16.706Z,21.80
2023-03-03T02:12:23.201Z,18.43
2023-03-03T02:17:25.096Z,19.53
2023-03-03T02:22:41.262Z,16.43
2023-03-03T02:27:45.328Z,17.80
2023-03-03T02:32:47.363Z,23.27
2023-03-03T02:37:49.232Z,29.57
2023-03-03T02:42:52.702Z,23.77
2023-03-03T02:47:56.934Z,17.80
2023-03-03T02:53:03.373Z,14.87
2023-03-03T02:58:05.164Z,15.40
2023-03-03T03:03:07.133Z,13.40
2023-03-03T03:08:09.984Z,13.77
2023-03-03T03:13:11.957Z,18.37
2023-03-03T03:18:18.156Z,15.83
2023-03-03T03:23:23.418Z,13.77
2023-03-03T03:28:25.367Z,14.23
2023-03-03T03:33:28.326Z,18.50
2023-03-03T03:38:31.651Z,14.80
2023-03-03T03:43:34.179Z,14.57
2023-03-03T03:48:40.147Z,14.37
2023-03-03T03:53:43.990Z,13.47
2023-03-03T03:58:48.293Z,14.63
2023-03-03T04:03:57.394Z,14.37
2023-03-03T04:09:01.702Z,13.47
2023-03-03T04:14:05.090Z,15.90
2023-03-03T04:19:10.127Z,13.37
2023-03-03T04:24:13.571Z,13.63
2023-03-03T04:29:15.686Z,15.37
2023-03-03T04:34:20.906Z,13.53
2023-03-03T04:39:26.025Z,13.50
2023-03-03T04:44:31.154Z,15.87
2023-03-03T04:49:33.888Z,15.80
2023-03-03T04:54:38.741Z,13.93
2023-03-03T04:59:42.873Z,14.30
2023-03-03T05:04:44.935Z,13.03
2023-03-03T05:09:48.956Z,16.70
2023-03-03T05:14:50.694Z,13.93
2023-03-03T05:19:57.307Z,15.03
2023-03-03T05:25:01.710Z,13.10
2023-03-03T05:30:04.075Z,18.10
2023-03-03T05:35:06.311Z,17.03
2023-03-03T05:40:08.820Z,14.60
2023-03-03T05:45:13.261Z,15.17
2023-03-03T05:50:18.094Z,15.23
2023-03-03T05:55:22.387Z,16.20
2023-03-03T06:00:26.326Z,19.17
2023-03-03T06:05:30.037Z,16.30
2023-03-03T06:10:34.220Z,16.57
2023-03-03T06:15:42.500Z,18.07
2023-03-03T06:20:44.261Z,20.80
2023-03-03T06:25:46.142Z,22.33
2023-03-03T06:30:53.544Z,22.63
2023-03-03T06:35:55.869Z,19.73
2023-03-03T06:40:58.278Z,22.63
2023-03-03T06:46:02.173Z,21.07
2023-03-03T06:51:24.704Z,14.60
2023-03-03T06:56:27.222Z,20.37
2023-03-03T07:01:39.041Z,21.97
2023-03-03T07:06:42.930Z,20.07
2023-03-03T07:11:46.585Z,17.33
2023-03-03T07:16:55.024Z,18.27
2023-03-03T07:21:57.798Z,19.97
2023-03-03T07:27:10.799Z,16.70
2023-03-03T07:32:27.933Z,16.77
2023-03-03T07:37:41.124Z,15.30
2023-03-03T07:42:44.256Z,14.43
2023-03-03T07:48:19.338Z,17.97
2023-03-03T07:53:34.928Z,15.70
2023-03-03T07:58:41.012Z,13.17
2023-03-03T08:03:46.919Z,14.73
2023-03-03T08:08:49.423Z,14.13
2023-03-03T08:14:00.902Z,12.87
2023-03-03T08:19:05.813Z,12.83
2023-03-03T08:24:11.896Z,11.27
2023-03-03T08:29:18.296Z,13.63
2023-03-03T08:34:22.461Z,12.00
2023-03-03T08:39:24.734Z,10.40
2023-03-03T08:44:26.469Z,9.93
2023-03-03T08:49:28.234Z,9.90
2023-03-03T08:54:30.470Z,9.73
2023-03-03T08:59:37.784Z,10.03
2023-03-03T09:04:41.729Z,9.07
2023-03-03T09:09:43.510Z,8.80
2023-03-03T09:14:45.258Z,7.80
2023-03-03T09:19:49.553Z,7.57
2023-03-03T09:24:56.397Z,7.77
2023-03-03T09:30:34.950Z,6.40
2023-03-03T09:35:42.358Z,6.47
2023-03-03T09:41:15.286Z,5.87
2023-03-03T09:46:33.836Z,6.17
2023-03-03T09:51:56.963Z,4.63
2023-03-03T09:57:16.081Z,4.83
2023-03-03T10:03:04.505Z,4.40
2023-03-03T10:08:12.553Z,5.90
2023-03-03T10:13:34.904Z,4.83
2023-03-03T10:19:06.454Z,7.03
2023-03-03T10:24:16.471Z,4.53
2023-03-03T10:29:29.197Z,4.27
2023-03-03T10:34:48.492Z,4.20
2023-03-03T10:40:01.914Z,4.40
2023-03-03T10:45:21.690Z,5.73
2023-03-03T10:50:51.654Z,5.30
2023-03-03T10:56:32.128Z,2.43
2023-03-03T11:01:36.968Z,2.63
2023-03-03T11:07:09.311Z,2.17
2023-03-03T11:12:23.240Z,1.60
2023-03-03T11:17:49.545Z,1.70
2023-03-03T11:23:00.972Z,2.17
2023-03-03T11:28:11.712Z,2.03
2023-03-03T11:33:19.954Z,2.63
2023-03-03T11:38:52.265Z,2.40
2023-03-03T11:44:00.137Z,2.20
2023-03-03T11:49:22.823Z,2.17
2023-03-03T11:54:45.958Z,2.47
2023-03-03T12:00:01.519Z,2.30
2023-03-03T12:05:34.355Z,2.43
2023-03-03T12:11:08.324Z,2.37
2023-03-03T12:16:19.393Z,2.20
2023-03-03T12:21:39.739Z,2.43
2023-03-03T12:27:03.383Z,1.90
2023-03-03T12:32:21.649Z,2.80
2023-03-03T12:37:30.183Z,1.90
2023-03-03T12:42:53.820Z,2.20
2023-03-03T12:48:27.227Z,2.37
2023-03-03T12:53:58.057Z,1.93
2023-03-03T12:59:05.133Z,1.87
2023-03-03T13:04:16.117Z,1.53
2023-03-03T13:09:31.430Z,2.37
2023-03-03T13:14:50.291Z,1.60
2023-03-03T13:20:03.994Z,2.10
2023-03-03T13:25:39.225Z,1.77
2023-03-03T13:30:45.918Z,2.37
2023-03-03T13:35:56.144Z,2.10
2023-03-03T13:41:18.688Z,2.00
2023-03-03T13:46:23.126Z,1.70
2023-03-03T13:51:33.927Z,1.83
2023-03-03T13:56:46.754Z,2.20
2023-03-03T14:01:51.487Z,2.57
2023-03-03T14:07:07.366Z,2.10
2023-03-03T14:12:41.047Z,2.23
2023-03-03T14:18:13.925Z,2.53
2023-03-03T14:23:31.017Z,2.60
2023-03-03T14:28:39.083Z,3.53
2023-03-03T14:33:45.811Z,3.57
2023-03-03T14:38:51.715Z,3.60
2023-03-03T14:44:33.461Z,3.87
2023-03-03T14:49:41.111Z,3.27
2023-03-03T14:54:48.573Z,3.40
2023-03-03T15:00:25.744Z,3.97
2023-03-03T15:05:33.728Z,4.50
2023-03-03T15:10:40.465Z,4.10
2023-03-03T15:15:55.226Z,4.20
2023-03-03T15:21:08.661Z,4.00
2023-03-03T15:26:12.973Z,3.83
2023-03-03T15:31:34.046Z,4.07
2023-03-03T15:37:04.391Z,4.40
2023-03-03T15:42:13.951Z,4.90
2023-03-03T15:47:45.233Z,4.67
2023-03-03T15:53:05.465Z,5.30
2023-03-03T15:58:38.399Z,4.17
2023-03-03T16:03:48.370Z,4.23
2023-03-03T16:09:11.924Z,4.20
2023-03-03T16:14:45.637Z,4.43
2023-03-03T16:20:03.816Z,5.07
2023-03-03T16:25:17.155Z,4.17
2023-03-03T16:30:18.794Z,4.63
2023-03-03T16:35:40.094Z,4.70
2023-03-03T16:40:58.191Z,4.53
2023-03-03T16:46:11.743Z,4.60
2023-03-03T16:51:52.756Z,3.67
2023-03-03T16:57:08.562Z,5.68
2023-03-03T17:02:37.785Z,4.80
2023-03-03T17:07:58.316Z,4.63
2023-03-03T17:13:15.617Z,5.23
2023-03-03T17:18:29.658Z,4.60
2023-03-03T17:23:46.686Z,4.60
2023-03-03T17:29:09.089Z,5.83
2023-03-03T17:34:29.845Z,5.47
2023-03-03T17:39:42.592Z,5.47
2023-03-03T17:45:00.419Z,5.03
2023-03-03T17:50:29.157Z,5.90
2023-03-03T17:55:35.759Z,4.70
2023-03-03T18:00:49.674Z,5.40
2023-03-03T18:06:07.764Z,4.53
2023-03-03T18:11:22.640Z,4.57
2023-03-03T18:16:45.708Z,5.33
2023-03-03T18:22:14.583Z,4.67
2023-03-03T18:27:37.060Z,6.17
2023-03-03T18:32:41.817Z,6.03
2023-03-03T18:37:46.190Z,6.27
2023-03-03T18:42:53.889Z,5.00
2023-03-03T18:48:01.621Z,5.23
2023-03-03T18:53:31.589Z,5.83
2023-03-03T18:58:43.431Z,5.67
2023-03-03T19:03:48.042Z,6.07
2023-03-03T19:08:57.900Z,5.23
2023-03-03T19:14:25.861Z,6.07
2023-03-03T19:19:33.682Z,5.57
2023-03-03T19:24:35.531Z,5.30
2023-03-03T19:29:46.463Z,5.00
2023-03-03T19:35:08.377Z,6.57
2023-03-03T19:40:37.076Z,5.33
2023-03-03T19:46:23.447Z,4.93
2023-03-03T19:51:31.336Z,4.57
2023-03-03T19:56:40.672Z,6.07
2023-03-03T20:01:53.856Z,5.00
2023-03-03T20:06:58.587Z,4.97
2023-03-03T20:12:02.732Z,4.77
2023-03-03T20:17:25.470Z,4.87
2023-03-03T20:22:29.540Z,4.50
2023-03-03T20:27:54.713Z,4.53
2023-03-03T20:33:30.433Z,4.30
2023-03-03T20:38:51.418Z,4.37
2023-03-03T20:44:16.354Z,4.73
2023-03-03T20:49:24.161Z,4.57
2023-03-03T20:54:37.485Z,3.77
2023-03-03T20:59:48.407Z,3.67
2023-03-03T21:05:08.662Z,3.53
2023-03-03T21:10:16.661Z,4.17
2023-03-03T21:15:33.930Z,4.80
2023-03-03T21:20:35.932Z,3.83
2023-03-03T21:25:40.783Z,4.47
2023-03-03T21:31:16.277Z,4.40
2023-03-03T21:36:46.671Z,5.50
2023-03-03T21:42:02.102Z,3.97
2023-03-03T21:47:08.813Z,4.23
2023-03-03T21:52:14.383Z,4.27
2023-03-03T21:57:25.081Z,4.43
2023-03-03T22:02:26.869Z,4.07
2023-03-03T22:07:28.819Z,3.97
2023-03-03T22:12:30.646Z,5.30
2023-03-03T22:17:32.344Z,4.63
2023-03-03T22:22:36.053Z,4.20
2023-03-03T22:27:37.734Z,3.70
2023-03-03T22:32:39.392Z,4.07
2023-03-03T22:37:43.193Z,3.60
2023-03-03T22:42:45.184Z,3.83
2023-03-03T22:47:49.187Z,4.53
2023-03-03T22:52:50.884Z,3.60
2023-03-03T22:57:54.950Z,3.70
2023-03-03T23:02:56.729Z,4.23
2023-03-03T23:07:58.503Z,3.60
2023-03-03T23:13:02.591Z,3.70
2023-03-03T23:18:06.379Z,3.97
2023-03-03T23:23:10.368Z,3.53
2023-03-03T23:28:15.440Z,4.27
2023-03-03T23:33:17.118Z,4.00
2023-03-03T23:38:18.874Z,3.00
2023-03-03T23:43:20.537Z,3.17
2023-03-03T23:48:24.612Z,3.57
2023-03-03T23:53:28.860Z,2.83
2023-03-03T23:58:30.768Z,2.67
